DW6861 Weather Reports


Display with metric or nautical units.
time (UTC)temp
F
wind
direction
speed
MPH
gust
MPH
rain 1hr
in
rain 24hr
in
rain mn
in
humidity
%
barometer
mb
20190217133112 60 142 4.0 8.0 0.00 0.00 0.00 53 1018.1
20190217123112 57 111 3.0 9.0 0.00 0.00 0.00 57 1018.6
20190217121611 56 118 4.0 10.0 0.00 0.00 0.00 59 1018.8
20190217114611 54 156 3.0 8.0 0.00 0.00 0.00 62 1019.1
20190217113111 53 131 6.0 12.0 0.00 0.00 0.00 63 1019.2
20190217111611 53 145 6.0 10.0 0.00 0.00 0.00 64 1019.4
20190217103110 50 194 6.0 10.0 0.00 0.00 0.00 69 1019.8
20190217100110 47 156 6.0 10.0 0.00 0.00 0.00 74 1019.8
20190217093110 44 124 6.0 10.0 0.00 0.00 0.00 80 1020.0
20190217091609 42 156 5.0 8.0 0.00 0.00 0.00 81 1020.1
20190217090109 42 159 5.0 9.0 0.00 0.00 0.00 82 1020.2
20190217083110 40 132 7.0 12.0 0.00 0.00 0.00 83 1020.4
20190217074610 39 158 6.0 12.0 0.00 0.00 0.00 85 1020.6
20190217071610 38 127 5.0 10.0 0.00 0.00 0.00 85 1020.7
20190217070109 38 126 4.0 9.0 0.00 0.00 0.00 85 1020.6
20190217063109 39 172 4.0 10.0 0.00 0.00 0.00 84 1020.7
20190217054613 39 137 4.0 9.0 0.00 0.00 0.00 84 1020.9
20190217053113 39 134 4.0 8.0 0.00 0.00 0.00 84 1020.9
20190217041612 39 134 3.0 5.0 0.00 0.00 0.00 85 1021.3
20190217034612 40 137 3.0 5.0 0.00 0.00 0.00 85 1021.4
20190217033111 39 107 3.0 5.0 0.00 0.00 0.00 86 1021.6
20190217030112 39 150 2.0 5.0 0.00 0.00 0.00 86 1021.8
20190217021611 39 136 1.0 3.0 0.00 0.00 0.00 86 1022.5
20190217014610 39 138 1.0 3.0 0.00 0.00 0.00 86 1022.6
20190217013110 40 146 2.0 3.0 0.00 0.00 0.00 84 1022.7
20190217011610 40 170 0.0 1.0 0.00 0.00 0.00 83 1023.0
20190217004610 42 171 1.0 3.0 0.00 0.00 0.00 83 1022.9
20190217003109 41 173 1.0 3.0 0.00 0.00 0.00 84 1023.0
20190217001609 42 173 1.0 3.0 0.00 0.00 0.00 84 1023.0
20190216233103 40 173 1.0 3.0 0.00 0.00 0.00 88 1023.3
20190216230102 40 153 0.0 1.0 0.00 0.00 0.00 89 1023.4
20190216224602 41 153 1.0 3.0 0.00 0.00 0.00 89 1023.4
20190216223102 42 153 1.0 3.0 0.00 0.00 0.00 90 1023.4
20190216221602 41 140 1.0 3.0 0.00 0.00 0.00 91 1023.5
20190216220102 41 140 1.0 1.0 0.00 0.00 0.00 91 1023.6
20190216211601 41 157 2.0 5.0 0.00 0.00 0.00 90 1023.7
20190216203100 42 262 0.0 0.0 0.00 0.00 0.00 89 1023.8
20190216200100 42 262 0.0 0.0 0.00 0.00 0.00 88 1023.8
20190216194601 43 262 0.0 0.0 0.00 0.00 0.00 87 1023.8
20190216190104 44 262 0.0 0.0 0.00 0.00 0.00 86 1024.0
20190216183104 45 262 0.0 1.0 0.00 0.00 0.00 84 1024.0
20190216181603 46 262 0.0 1.0 0.00 0.00 0.00 84 1023.9
20190216173103 48 263 0.0 0.0 0.00 0.00 0.00 81 1023.9
20190216164602 51 263 1.0 3.0 0.00 0.00 0.00 74 1023.8
20190216163102 53 244 1.0 3.0 0.00 0.00 0.00 72 1023.7
20190216161602 53 275 2.0 3.0 0.00 0.00 0.00 70 1023.8
20190216160102 54 266 1.0 4.0 0.00 0.00 0.00 70 1023.9
20190216154601 54 277 2.0 5.0 0.00 0.00 0.00 69 1024.0
20190216153101 55 277 3.0 8.0 0.00 0.00 0.00 67 1024.0
20190216150101 55 308 3.0 5.0 0.00 0.00 0.00 70 1024.1
20190216144601 55 251 2.0 4.0 0.00 0.00 0.00 69 1024.2
20190216143100 56 292 4.0 10.0 0.00 0.00 0.00 66 1024.3
20190216141600 55 278 4.0 8.0 0.00 0.00 0.00 69 1024.2
20190216140100 56 275 4.0 12.0 0.00 0.00 0.00 68 1024.2
20190216134605 56 275 4.0 9.0 0.00 0.00 0.00 68 1024.3